sensor_id;sensor_type;location;lat;lon;timestamp;temperature;humidity
23597;DHT22;40226;50.874;4.394;2024-01-30T00:01:22;11.80;99.90
23597;DHT22;40226;50.874;4.394;2024-01-30T00:03:47;11.80;99.90
23597;DHT22;40226;50.874;4.394;2024-01-30T00:06:13;11.80;99.90
23597;DHT22;40226;50.874;4.394;2024-01-30T00:08:38;11.80;99.90
23597;DHT22;40226;50.874;4.394;2024-01-30T00:11:04;11.80;99.90
23597;DHT22;40226;50.874;4.394;2024-01-30T00:13:30;11.80;99.90
23597;DHT22;40226;50.874;4.394;2024-01-30T00:15:56;11.80;99.90
23597;DHT22;40226;50.874;4.394;2024-01-30T00:18:21;11.80;99.90
23597;DHT22;40226;50.874;4.394;2024-01-30T00:20:47;11.80;99.90
23597;DHT22;40226;50.874;4.394;2024-01-30T00:23:13;11.80;99.90
23597;DHT22;40226;50.874;4.394;2024-01-30T00:25:38;11.70;99.90
23597;DHT22;40226;50.874;4.394;2024-01-30T00:28:04;11.70;99.90
23597;DHT22;40226;50.874;4.394;2024-01-30T00:30:30;11.80;99.90
23597;DHT22;40226;50.874;4.394;2024-01-30T00:32:55;11.80;99.90
23597;DHT22;40226;50.874;4.394;2024-01-30T00:35:21;11.80;99.90
23597;DHT22;40226;50.874;4.394;2024-01-30T00:37:48;11.90;99.90
23597;DHT22;40226;50.874;4.394;2024-01-30T00:40:13;11.90;99.90
23597;DHT22;40226;50.874;4.394;2024-01-30T00:42:44;11.90;99.90
23597;DHT22;40226;50.874;4.394;2024-01-30T00:45:14;12.00;99.90
23597;DHT22;40226;50.874;4.394;2024-01-30T00:47:39;12.00;99.90
23597;DHT22;40226;50.874;4.394;2024-01-30T00:50:05;12.00;99.90
23597;DHT22;40226;50.874;4.394;2024-01-30T00:52:31;12.10;99.90
23597;DHT22;40226;50.874;4.394;2024-01-30T00:54:58;12.00;99.90
23597;DHT22;40226;50.874;4.394;2024-01-30T00:57:24;12.00;99.90
23597;DHT22;40226;50.874;4.394;2024-01-30T00:59:50;12.10;99.90
23597;DHT22;40226;50.874;4.394;2024-01-30T01:02:15;12.10;99.90
23597;DHT22;40226;50.874;4.394;2024-01-30T01:04:43;12.10;99.90
23597;DHT22;40226;50.874;4.394;2024-01-30T01:07:10;12.00;99.90
23597;DHT22;40226;50.874;4.394;2024-01-30T01:09:35;12.00;99.90
23597;DHT22;40226;50.874;4.394;2024-01-30T01:12:02;12.00;99.90
23597;DHT22;40226;50.874;4.394;2024-01-30T01:14:27;12.10;99.90
23597;DHT22;40226;50.874;4.394;2024-01-30T01:16:53;12.10;99.90
23597;DHT22;40226;50.874;4.394;2024-01-30T01:19:19;12.00;99.90
23597;DHT22;40226;50.874;4.394;2024-01-30T01:21:44;12.00;99.90
23597;DHT22;40226;50.874;4.394;2024-01-30T01:24:10;12.00;99.90
23597;DHT22;40226;50.874;4.394;2024-01-30T01:26:35;12.10;99.90
23597;DHT22;40226;50.874;4.394;2024-01-30T01:29:01;12.10;99.90
23597;DHT22;40226;50.874;4.394;2024-01-30T01:31:27;12.20;99.90
23597;DHT22;40226;50.874;4.394;2024-01-30T01:33:55;12.20;99.90
23597;DHT22;40226;50.874;4.394;2024-01-30T01:36:20;12.20;99.90
23597;DHT22;40226;50.874;4.394;2024-01-30T01:38:46;12.20;99.90
23597;DHT22;40226;50.874;4.394;2024-01-30T01:41:12;12.20;99.90
23597;DHT22;40226;50.874;4.394;2024-01-30T01:43:37;12.20;99.90
23597;DHT22;40226;50.874;4.394;2024-01-30T01:46:05;12.20;99.90
23597;DHT22;40226;50.874;4.394;2024-01-30T01:48:32;12.30;99.90
23597;DHT22;40226;50.874;4.394;2024-01-30T01:50:58;12.30;99.90
23597;DHT22;40226;50.874;4.394;2024-01-30T01:53:24;12.40;99.90
23597;DHT22;40226;50.874;4.394;2024-01-30T01:55:51;12.30;99.90
23597;DHT22;40226;50.874;4.394;2024-01-30T01:58:19;12.30;99.90
23597;DHT22;40226;50.874;4.394;2024-01-30T02:00:46;12.30;99.90
23597;DHT22;40226;50.874;4.394;2024-01-30T02:03:14;12.40;99.90
23597;DHT22;40226;50.874;4.394;2024-01-30T02:05:43;12.40;99.90
23597;DHT22;40226;50.874;4.394;2024-01-30T02:08:09;12.30;99.90
23597;DHT22;40226;50.874;4.394;2024-01-30T02:10:35;12.30;99.90
23597;DHT22;40226;50.874;4.394;2024-01-30T02:13:00;12.30;99.90
23597;DHT22;40226;50.874;4.394;2024-01-30T02:15:26;12.30;99.90
23597;DHT22;40226;50.874;4.394;2024-01-30T02:17:51;12.30;99.90
23597;DHT22;40226;50.874;4.394;2024-01-30T02:20:17;12.30;99.90
23597;DHT22;40226;50.874;4.394;2024-01-30T02:22:43;12.30;99.90
23597;DHT22;40226;50.874;4.394;2024-01-30T02:25:09;12.30;99.90
23597;DHT22;40226;50.874;4.394;2024-01-30T02:27:34;12.30;99.90
23597;DHT22;40226;50.874;4.394;2024-01-30T02:30:00;12.30;99.90
23597;DHT22;40226;50.874;4.394;2024-01-30T02:32:25;12.30;99.90
23597;DHT22;40226;50.874;4.394;2024-01-30T02:34:51;12.20;99.90
23597;DHT22;40226;50.874;4.394;2024-01-30T02:37:17;12.30;99.90
23597;DHT22;40226;50.874;4.394;2024-01-30T02:39:42;12.30;99.90
23597;DHT22;40226;50.874;4.394;2024-01-30T02:42:08;12.30;99.90
23597;DHT22;40226;50.874;4.394;2024-01-30T02:44:34;12.30;99.90
23597;DHT22;40226;50.874;4.394;2024-01-30T02:46:59;12.30;99.90
23597;DHT22;40226;50.874;4.394;2024-01-30T02:49:25;12.30;99.90
23597;DHT22;40226;50.874;4.394;2024-01-30T02:51:51;12.30;99.90
23597;DHT22;40226;50.874;4.394;2024-01-30T02:54:17;12.30;99.90
23597;DHT22;40226;50.874;4.394;2024-01-30T02:56:42;12.20;99.90
23597;DHT22;40226;50.874;4.394;2024-01-30T02:59:08;12.20;99.90
23597;DHT22;40226;50.874;4.394;2024-01-30T03:01:33;12.20;99.90
23597;DHT22;40226;50.874;4.394;2024-01-30T03:04:07;12.30;99.90
23597;DHT22;40226;50.874;4.394;2024-01-30T03:06:32;12.20;99.90
23597;DHT22;40226;50.874;4.394;2024-01-30T03:08:58;12.20;99.90
23597;DHT22;40226;50.874;4.394;2024-01-30T03:11:24;12.20;99.90
23597;DHT22;40226;50.874;4.394;2024-01-30T03:13:49;12.20;99.90
23597;DHT22;40226;50.874;4.394;2024-01-30T03:16:15;12.20;99.90
23597;DHT22;40226;50.874;4.394;2024-01-30T03:18:40;12.30;99.90
23597;DHT22;40226;50.874;4.394;2024-01-30T03:21:06;12.30;99.90
23597;DHT22;40226;50.874;4.394;2024-01-30T03:23:31;12.20;99.90
23597;DHT22;40226;50.874;4.394;2024-01-30T03:25:57;12.20;99.90
23597;DHT22;40226;50.874;4.394;2024-01-30T03:28:23;12.20;99.90
23597;DHT22;40226;50.874;4.394;2024-01-30T03:30:48;12.20;99.90
23597;DHT22;40226;50.874;4.394;2024-01-30T03:33:14;12.20;99.90
23597;DHT22;40226;50.874;4.394;2024-01-30T03:35:40;12.20;99.90
23597;DHT22;40226;50.874;4.394;2024-01-30T03:38:05;12.40;99.90
23597;DHT22;40226;50.874;4.394;2024-01-30T03:40:31;12.30;99.90
23597;DHT22;40226;50.874;4.394;2024-01-30T03:42:56;12.30;99.90
23597;DHT22;40226;50.874;4.394;2024-01-30T03:45:22;12.30;99.90
23597;DHT22;40226;50.874;4.394;2024-01-30T03:47:47;12.30;99.90
23597;DHT22;40226;50.874;4.394;2024-01-30T03:50:13;12.20;99.90
23597;DHT22;40226;50.874;4.394;2024-01-30T03:52:39;12.30;99.90
23597;DHT22;40226;50.874;4.394;2024-01-30T03:55:04;12.20;99.90
23597;DHT22;40226;50.874;4.394;2024-01-30T03:57:30;12.20;99.90
23597;DHT22;40226;50.874;4.394;2024-01-30T03:59:56;12.20;99.90
23597;DHT22;40226;50.874;4.394;2024-01-30T04:02:21;12.20;99.90
23597;DHT22;40226;50.874;4.394;2024-01-30T04:04:47;12.20;99.90
23597;DHT22;40226;50.874;4.394;2024-01-30T04:07:12;12.10;99.90
23597;DHT22;40226;50.874;4.394;2024-01-30T04:09:38;12.10;99.90
23597;DHT22;40226;50.874;4.394;2024-01-30T04:12:04;12.10;99.90
23597;DHT22;40226;50.874;4.394;2024-01-30T04:14:29;12.10;99.90
23597;DHT22;40226;50.874;4.394;2024-01-30T04:16:55;12.10;99.90
23597;DHT22;40226;50.874;4.394;2024-01-30T04:19:21;12.20;99.90
23597;DHT22;40226;50.874;4.394;2024-01-30T04:21:46;12.20;99.90
23597;DHT22;40226;50.874;4.394;2024-01-30T04:24:12;12.20;99.90
23597;DHT22;40226;50.874;4.394;2024-01-30T04:26:37;12.20;99.90
23597;DHT22;40226;50.874;4.394;2024-01-30T04:29:03;12.10;99.90
23597;DHT22;40226;50.874;4.394;2024-01-30T04:31:28;12.10;99.90
23597;DHT22;40226;50.874;4.394;2024-01-30T04:33:54;12.00;99.90
23597;DHT22;40226;50.874;4.394;2024-01-30T04:36:19;12.10;99.90
23597;DHT22;40226;50.874;4.394;2024-01-30T04:38:45;12.00;99.90
23597;DHT22;40226;50.874;4.394;2024-01-30T04:41:11;12.10;99.90
23597;DHT22;40226;50.874;4.394;2024-01-30T04:43:36;12.20;99.90
23597;DHT22;40226;50.874;4.394;2024-01-30T04:46:02;12.10;99.90
23597;DHT22;40226;50.874;4.394;2024-01-30T04:48:27;12.10;99.90
23597;DHT22;40226;50.874;4.394;2024-01-30T04:50:53;12.10;99.90
23597;DHT22;40226;50.874;4.394;2024-01-30T04:53:18;12.10;99.90
23597;DHT22;40226;50.874;4.394;2024-01-30T04:55:44;12.10;99.90
23597;DHT22;40226;50.874;4.394;2024-01-30T04:58:10;12.00;99.90
23597;DHT22;40226;50.874;4.394;2024-01-30T05:00:35;12.00;99.90
23597;DHT22;40226;50.874;4.394;2024-01-30T05:03:01;12.00;99.90
23597;DHT22;40226;50.874;4.394;2024-01-30T05:05:26;12.00;99.90
23597;DHT22;40226;50.874;4.394;2024-01-30T05:07:52;12.00;99.90
23597;DHT22;40226;50.874;4.394;2024-01-30T05:10:18;12.00;99.90
23597;DHT22;40226;50.874;4.394;2024-01-30T05:12:43;12.00;99.90
23597;DHT22;40226;50.874;4.394;2024-01-30T05:15:09;12.00;99.90
23597;DHT22;40226;50.874;4.394;2024-01-30T05:17:35;11.90;99.90
23597;DHT22;40226;50.874;4.394;2024-01-30T05:20:00;12.00;99.90
23597;DHT22;40226;50.874;4.394;2024-01-30T05:22:26;12.00;99.90
23597;DHT22;40226;50.874;4.394;2024-01-30T05:24:51;11.90;99.90
23597;DHT22;40226;50.874;4.394;2024-01-30T05:27:17;11.90;99.90
23597;DHT22;40226;50.874;4.394;2024-01-30T05:29:42;12.00;99.90
23597;DHT22;40226;50.874;4.394;2024-01-30T05:32:08;12.00;99.90
23597;DHT22;40226;50.874;4.394;2024-01-30T05:34:35;11.90;99.90
23597;DHT22;40226;50.874;4.394;2024-01-30T05:37:01;11.90;99.90
23597;DHT22;40226;50.874;4.394;2024-01-30T05:39:27;11.90;99.90
23597;DHT22;40226;50.874;4.394;2024-01-30T05:41:52;11.90;99.90
23597;DHT22;40226;50.874;4.394;2024-01-30T05:44:18;11.90;99.90
23597;DHT22;40226;50.874;4.394;2024-01-30T05:46:43;11.80;99.90
23597;DHT22;40226;50.874;4.394;2024-01-30T05:49:09;11.90;99.90
23597;DHT22;40226;50.874;4.394;2024-01-30T05:51:34;11.90;99.90
23597;DHT22;40226;50.874;4.394;2024-01-30T05:54:00;11.90;99.90
23597;DHT22;40226;50.874;4.394;2024-01-30T05:56:28;12.00;99.90
23597;DHT22;40226;50.874;4.394;2024-01-30T05:58:54;11.90;99.90
23597;DHT22;40226;50.874;4.394;2024-01-30T06:01:20;11.90;99.90
23597;DHT22;40226;50.874;4.394;2024-01-30T06:03:46;12.00;99.90
23597;DHT22;40226;50.874;4.394;2024-01-30T06:06:11;12.00;99.90
23597;DHT22;40226;50.874;4.394;2024-01-30T06:08:37;11.90;99.90
23597;DHT22;40226;50.874;4.394;2024-01-30T06:11:03;11.90;99.90
23597;DHT22;40226;50.874;4.394;2024-01-30T06:13:28;11.90;99.90
23597;DHT22;40226;50.874;4.394;2024-01-30T06:15:57;11.80;99.90
23597;DHT22;40226;50.874;4.394;2024-01-30T06:18:22;11.80;99.90
23597;DHT22;40226;50.874;4.394;2024-01-30T06:20:48;11.80;99.90
23597;DHT22;40226;50.874;4.394;2024-01-30T06:23:14;11.80;99.90
23597;DHT22;40226;50.874;4.394;2024-01-30T06:25:40;11.80;99.90
23597;DHT22;40226;50.874;4.394;2024-01-30T06:28:06;11.70;99.90
23597;DHT22;40226;50.874;4.394;2024-01-30T06:30:31;11.70;99.90
23597;DHT22;40226;50.874;4.394;2024-01-30T06:32:57;11.70;99.90
23597;DHT22;40226;50.874;4.394;2024-01-30T06:35:22;11.70;99.90
23597;DHT22;40226;50.874;4.394;2024-01-30T06:37:48;11.80;99.90
23597;DHT22;40226;50.874;4.394;2024-01-30T06:40:14;11.70;99.90
23597;DHT22;40226;50.874;4.394;2024-01-30T06:42:39;11.70;99.90
23597;DHT22;40226;50.874;4.394;2024-01-30T06:45:05;11.70;99.90
23597;DHT22;40226;50.874;4.394;2024-01-30T06:47:31;11.60;99.90
23597;DHT22;40226;50.874;4.394;2024-01-30T06:49:57;11.60;99.90
23597;DHT22;40226;50.874;4.394;2024-01-30T06:52:23;11.60;99.90
23597;DHT22;40226;50.874;4.394;2024-01-30T06:54:48;11.60;99.90
23597;DHT22;40226;50.874;4.394;2024-01-30T06:57:14;11.60;99.90
23597;DHT22;40226;50.874;4.394;2024-01-30T06:59:40;11.70;99.90
23597;DHT22;40226;50.874;4.394;2024-01-30T07:02:10;11.70;99.90
23597;DHT22;40226;50.874;4.394;2024-01-30T07:04:36;11.60;99.90
23597;DHT22;40226;50.874;4.394;2024-01-30T07:07:03;11.60;99.90
23597;DHT22;40226;50.874;4.394;2024-01-30T07:09:30;11.60;99.90
23597;DHT22;40226;50.874;4.394;2024-01-30T07:11:56;11.70;99.90
23597;DHT22;40226;50.874;4.394;2024-01-30T07:14:24;11.60;99.90
23597;DHT22;40226;50.874;4.394;2024-01-30T07:16:49;11.80;99.90
23597;DHT22;40226;50.874;4.394;2024-01-30T07:19:15;11.80;99.90
23597;DHT22;40226;50.874;4.394;2024-01-30T07:21:41;11.80;99.90
23597;DHT22;40226;50.874;4.394;2024-01-30T07:24:07;11.90;99.90
23597;DHT22;40226;50.874;4.394;2024-01-30T07:26:32;12.00;99.90
23597;DHT22;40226;50.874;4.394;2024-01-30T07:28:58;11.90;99.90
23597;DHT22;40226;50.874;4.394;2024-01-30T07:31:24;11.90;99.90
23597;DHT22;40226;50.874;4.394;2024-01-30T07:33:49;11.90;99.90
23597;DHT22;40226;50.874;4.394;2024-01-30T07:36:15;11.90;99.90
23597;DHT22;40226;50.874;4.394;2024-01-30T07:38:40;12.00;99.90
23597;DHT22;40226;50.874;4.394;2024-01-30T07:41:06;11.90;99.90
23597;DHT22;40226;50.874;4.394;2024-01-30T07:43:31;11.90;99.90
23597;DHT22;40226;50.874;4.394;2024-01-30T07:45:59;11.90;99.90
23597;DHT22;40226;50.874;4.394;2024-01-30T07:48:26;12.00;99.90
23597;DHT22;40226;50.874;4.394;2024-01-30T07:50:52;11.90;99.90
23597;DHT22;40226;50.874;4.394;2024-01-30T07:53:18;11.90;99.90
23597;DHT22;40226;50.874;4.394;2024-01-30T07:55:47;11.90;99.90
23597;DHT22;40226;50.874;4.394;2024-01-30T07:58:12;11.80;99.90
23597;DHT22;40226;50.874;4.394;2024-01-30T08:00:38;11.80;99.90
23597;DHT22;40226;50.874;4.394;2024-01-30T08:03:04;11.80;99.90
23597;DHT22;40226;50.874;4.394;2024-01-30T08:05:30;11.80;99.90
23597;DHT22;40226;50.874;4.394;2024-01-30T08:07:56;11.90;99.90
23597;DHT22;40226;50.874;4.394;2024-01-30T08:10:22;11.90;99.90
23597;DHT22;40226;50.874;4.394;2024-01-30T08:12:47;11.90;99.90
23597;DHT22;40226;50.874;4.394;2024-01-30T08:15:13;11.80;99.90
23597;DHT22;40226;50.874;4.394;2024-01-30T08:17:39;11.70;99.90
23597;DHT22;40226;50.874;4.394;2024-01-30T08:20:05;11.70;99.90
23597;DHT22;40226;50.874;4.394;2024-01-30T08:22:31;11.70;99.90
23597;DHT22;40226;50.874;4.394;2024-01-30T08:24:57;11.80;99.90
23597;DHT22;40226;50.874;4.394;2024-01-30T08:27:22;11.90;99.90
23597;DHT22;40226;50.874;4.394;2024-01-30T08:29:48;11.80;99.90
23597;DHT22;40226;50.874;4.394;2024-01-30T08:32:15;11.80;99.90
23597;DHT22;40226;50.874;4.394;2024-01-30T08:34:41;11.80;99.90
23597;DHT22;40226;50.874;4.394;2024-01-30T08:37:06;11.80;99.90
23597;DHT22;40226;50.874;4.394;2024-01-30T08:39:32;11.80;99.90
23597;DHT22;40226;50.874;4.394;2024-01-30T08:41:58;11.80;99.90
23597;DHT22;40226;50.874;4.394;2024-01-30T08:44:24;11.80;99.90
23597;DHT22;40226;50.874;4.394;2024-01-30T08:46:49;11.90;99.90
23597;DHT22;40226;50.874;4.394;2024-01-30T08:49:20;11.90;99.90
23597;DHT22;40226;50.874;4.394;2024-01-30T08:51:46;12.00;99.90
23597;DHT22;40226;50.874;4.394;2024-01-30T08:54:12;12.00;99.90
23597;DHT22;40226;50.874;4.394;2024-01-30T08:56:38;12.00;99.90
23597;DHT22;40226;50.874;4.394;2024-01-30T08:59:03;12.10;99.90
23597;DHT22;40226;50.874;4.394;2024-01-30T09:01:29;12.10;99.90
23597;DHT22;40226;50.874;4.394;2024-01-30T09:03:55;12.10;99.90
23597;DHT22;40226;50.874;4.394;2024-01-30T09:06:20;12.10;99.90
23597;DHT22;40226;50.874;4.394;2024-01-30T09:08:46;12.10;99.90
23597;DHT22;40226;50.874;4.394;2024-01-30T09:11:12;12.10;99.90
23597;DHT22;40226;50.874;4.394;2024-01-30T09:13:38;12.20;99.90
23597;DHT22;40226;50.874;4.394;2024-01-30T09:16:04;12.20;99.90
23597;DHT22;40226;50.874;4.394;2024-01-30T09:18:30;12.20;99.90
23597;DHT22;40226;50.874;4.394;2024-01-30T09:20:56;12.20;99.90
23597;DHT22;40226;50.874;4.394;2024-01-30T09:23:21;12.30;99.90
23597;DHT22;40226;50.874;4.394;2024-01-30T09:25:47;12.20;99.90
23597;DHT22;40226;50.874;4.394;2024-01-30T09:28:13;12.20;99.90
23597;DHT22;40226;50.874;4.394;2024-01-30T09:30:39;12.10;99.90
23597;DHT22;40226;50.874;4.394;2024-01-30T09:33:06;12.10;99.90
23597;DHT22;40226;50.874;4.394;2024-01-30T09:35:31;12.10;99.90
23597;DHT22;40226;50.874;4.394;2024-01-30T09:37:57;12.10;99.90
23597;DHT22;40226;50.874;4.394;2024-01-30T09:40:24;12.20;99.90
23597;DHT22;40226;50.874;4.394;2024-01-30T09:42:54;12.20;99.90
23597;DHT22;40226;50.874;4.394;2024-01-30T09:45:23;12.00;99.90
23597;DHT22;40226;50.874;4.394;2024-01-30T09:47:49;11.90;99.90
23597;DHT22;40226;50.874;4.394;2024-01-30T09:50:15;11.90;99.90
23597;DHT22;40226;50.874;4.394;2024-01-30T09:52:46;11.80;99.90
23597;DHT22;40226;50.874;4.394;2024-01-30T09:55:11;11.80;99.90
23597;DHT22;40226;50.874;4.394;2024-01-30T09:57:37;11.80;99.90
23597;DHT22;40226;50.874;4.394;2024-01-30T10:00:04;11.70;99.90
23597;DHT22;40226;50.874;4.394;2024-01-30T10:02:31;11.70;99.90
23597;DHT22;40226;50.874;4.394;2024-01-30T10:04:57;11.70;99.90
23597;DHT22;40226;50.874;4.394;2024-01-30T10:07:23;11.70;99.90
23597;DHT22;40226;50.874;4.394;2024-01-30T10:09:49;11.80;99.90
23597;DHT22;40226;50.874;4.394;2024-01-30T10:12:15;11.80;99.90
23597;DHT22;40226;50.874;4.394;2024-01-30T10:14:42;11.80;99.90
23597;DHT22;40226;50.874;4.394;2024-01-30T10:17:12;11.70;99.90
23597;DHT22;40226;50.874;4.394;2024-01-30T10:19:39;11.70;99.90
23597;DHT22;40226;50.874;4.394;2024-01-30T10:22:07;11.70;99.90
23597;DHT22;40226;50.874;4.394;2024-01-30T10:24:34;11.60;99.90
23597;DHT22;40226;50.874;4.394;2024-01-30T10:26:59;11.60;99.90
23597;DHT22;40226;50.874;4.394;2024-01-30T10:29:26;11.80;99.90
23597;DHT22;40226;50.874;4.394;2024-01-30T10:32:02;11.80;99.90
23597;DHT22;40226;50.874;4.394;2024-01-30T10:34:28;11.90;99.90
23597;DHT22;40226;50.874;4.394;2024-01-30T10:37:07;12.00;99.90
23597;DHT22;40226;50.874;4.394;2024-01-30T10:39:38;11.80;99.90
23597;DHT22;40226;50.874;4.394;2024-01-30T10:42:05;11.70;99.90
23597;DHT22;40226;50.874;4.394;2024-01-30T10:47:36;11.60;99.90
23597;DHT22;40226;50.874;4.394;2024-01-30T10:50:03;11.70;99.90
23597;DHT22;40226;50.874;4.394;2024-01-30T10:52:29;11.70;99.90
23597;DHT22;40226;50.874;4.394;2024-01-30T10:54:56;11.60;99.90
23597;DHT22;40226;50.874;4.394;2024-01-30T10:57:26;11.70;99.90
23597;DHT22;40226;50.874;4.394;2024-01-30T10:59:59;11.60;99.90
23597;DHT22;40226;50.874;4.394;2024-01-30T11:02:25;11.50;99.90
23597;DHT22;40226;50.874;4.394;2024-01-30T11:04:59;11.60;99.90
23597;DHT22;40226;50.874;4.394;2024-01-30T11:07:26;11.70;99.90
23597;DHT22;40226;50.874;4.394;2024-01-30T11:09:53;11.70;99.90
23597;DHT22;40226;50.874;4.394;2024-01-30T11:12:23;11.80;99.90
23597;DHT22;40226;50.874;4.394;2024-01-30T11:14:49;11.70;99.90
23597;DHT22;40226;50.874;4.394;2024-01-30T11:17:15;11.80;99.90
23597;DHT22;40226;50.874;4.394;2024-01-30T11:19:41;11.60;99.90
23597;DHT22;40226;50.874;4.394;2024-01-30T11:22:08;11.40;99.90
23597;DHT22;40226;50.874;4.394;2024-01-30T11:24:40;11.50;99.90
23597;DHT22;40226;50.874;4.394;2024-01-30T11:27:09;11.40;99.90
23597;DHT22;40226;50.874;4.394;2024-01-30T11:29:38;11.40;99.90
23597;DHT22;40226;50.874;4.394;2024-01-30T11:32:05;11.60;99.90
23597;DHT22;40226;50.874;4.394;2024-01-30T11:34:32;11.60;99.90
23597;DHT22;40226;50.874;4.394;2024-01-30T11:37:06;11.60;99.90
23597;DHT22;40226;50.874;4.394;2024-01-30T11:39:35;11.60;99.90
23597;DHT22;40226;50.874;4.394;2024-01-30T11:42:03;11.60;99.90
23597;DHT22;40226;50.874;4.394;2024-01-30T11:44:30;11.70;99.90
23597;DHT22;40226;50.874;4.394;2024-01-30T11:46:56;11.80;99.90
23597;DHT22;40226;50.874;4.394;2024-01-30T11:49:21;11.70;99.90
23597;DHT22;40226;50.874;4.394;2024-01-30T11:51:48;11.70;99.90
23597;DHT22;40226;50.874;4.394;2024-01-30T11:54:15;11.80;99.90
23597;DHT22;40226;50.874;4.394;2024-01-30T11:56:42;12.10;99.90
23597;DHT22;40226;50.874;4.394;2024-01-30T11:59:08;12.30;99.90
23597;DHT22;40226;50.874;4.394;2024-01-30T12:01:34;12.40;99.90
23597;DHT22;40226;50.874;4.394;2024-01-30T12:04:00;12.30;99.90
23597;DHT22;40226;50.874;4.394;2024-01-30T12:06:26;12.40;99.90
23597;DHT22;40226;50.874;4.394;2024-01-30T12:09:00;12.10;99.90
23597;DHT22;40226;50.874;4.394;2024-01-30T12:11:26;11.80;99.90
23597;DHT22;40226;50.874;4.394;2024-01-30T12:13:53;11.90;99.90
23597;DHT22;40226;50.874;4.394;2024-01-30T12:16:19;12.00;99.90
23597;DHT22;40226;50.874;4.394;2024-01-30T12:18:45;12.20;99.90
23597;DHT22;40226;50.874;4.394;2024-01-30T12:21:11;12.00;99.90
23597;DHT22;40226;50.874;4.394;2024-01-30T12:23:37;12.00;99.90
23597;DHT22;40226;50.874;4.394;2024-01-30T12:26:03;12.10;99.90
23597;DHT22;40226;50.874;4.394;2024-01-30T12:28:32;12.20;99.90
23597;DHT22;40226;50.874;4.394;2024-01-30T12:31:02;12.50;99.90
23597;DHT22;40226;50.874;4.394;2024-01-30T12:33:29;12.10;99.90
23597;DHT22;40226;50.874;4.394;2024-01-30T12:35:54;12.00;99.90
23597;DHT22;40226;50.874;4.394;2024-01-30T12:38:20;11.90;99.90
23597;DHT22;40226;50.874;4.394;2024-01-30T12:40:46;12.10;99.90
23597;DHT22;40226;50.874;4.394;2024-01-30T12:43:13;12.30;99.90
23597;DHT22;40226;50.874;4.394;2024-01-30T12:45:40;12.40;99.90
23597;DHT22;40226;50.874;4.394;2024-01-30T12:48:06;12.30;99.90
23597;DHT22;40226;50.874;4.394;2024-01-30T12:50:32;12.50;99.90
23597;DHT22;40226;50.874;4.394;2024-01-30T12:52:57;12.10;99.90
23597;DHT22;40226;50.874;4.394;2024-01-30T12:55:24;12.00;99.90
23597;DHT22;40226;50.874;4.394;2024-01-30T12:57:50;11.80;99.90
23597;DHT22;40226;50.874;4.394;2024-01-30T13:00:16;11.90;99.90
23597;DHT22;40226;50.874;4.394;2024-01-30T13:02:42;11.90;99.90
23597;DHT22;40226;50.874;4.394;2024-01-30T13:05:10;11.70;99.90
23597;DHT22;40226;50.874;4.394;2024-01-30T13:07:36;11.60;99.90
23597;DHT22;40226;50.874;4.394;2024-01-30T13:10:02;11.50;99.90
23597;DHT22;40226;50.874;4.394;2024-01-30T13:12:28;11.50;99.90
23597;DHT22;40226;50.874;4.394;2024-01-30T13:14:54;11.60;99.90
23597;DHT22;40226;50.874;4.394;2024-01-30T13:17:20;11.60;99.90
23597;DHT22;40226;50.874;4.394;2024-01-30T13:19:46;11.70;99.90
23597;DHT22;40226;50.874;4.394;2024-01-30T13:22:11;11.70;99.90
23597;DHT22;40226;50.874;4.394;2024-01-30T13:24:37;11.60;99.90
23597;DHT22;40226;50.874;4.394;2024-01-30T13:27:03;11.40;99.90
23597;DHT22;40226;50.874;4.394;2024-01-30T13:29:31;11.40;99.90
23597;DHT22;40226;50.874;4.394;2024-01-30T13:31:56;11.30;99.90
23597;DHT22;40226;50.874;4.394;2024-01-30T13:34:22;11.40;99.90
23597;DHT22;40226;50.874;4.394;2024-01-30T13:36:48;11.40;99.90
23597;DHT22;40226;50.874;4.394;2024-01-30T13:39:14;11.20;99.90
23597;DHT22;40226;50.874;4.394;2024-01-30T13:41:41;11.30;99.90
23597;DHT22;40226;50.874;4.394;2024-01-30T13:44:08;11.30;99.90
23597;DHT22;40226;50.874;4.394;2024-01-30T13:46:34;11.40;99.90
23597;DHT22;40226;50.874;4.394;2024-01-30T13:49:01;11.50;99.90
23597;DHT22;40226;50.874;4.394;2024-01-30T13:51:27;11.50;99.90
23597;DHT22;40226;50.874;4.394;2024-01-30T13:53:53;11.60;99.90
23597;DHT22;40226;50.874;4.394;2024-01-30T13:56:20;11.70;99.90
23597;DHT22;40226;50.874;4.394;2024-01-30T13:58:48;11.60;99.90
23597;DHT22;40226;50.874;4.394;2024-01-30T14:01:14;11.40;99.90
23597;DHT22;40226;50.874;4.394;2024-01-30T14:03:39;11.40;99.90
23597;DHT22;40226;50.874;4.394;2024-01-30T14:06:05;11.30;99.90
23597;DHT22;40226;50.874;4.394;2024-01-30T14:08:31;11.30;99.90
23597;DHT22;40226;50.874;4.394;2024-01-30T14:10:57;11.10;99.90
23597;DHT22;40226;50.874;4.394;2024-01-30T14:13:23;11.20;99.90
23597;DHT22;40226;50.874;4.394;2024-01-30T14:15:53;11.30;99.90
23597;DHT22;40226;50.874;4.394;2024-01-30T14:18:19;11.40;99.90
23597;DHT22;40226;50.874;4.394;2024-01-30T14:20:45;11.50;99.90
23597;DHT22;40226;50.874;4.394;2024-01-30T14:23:11;11.30;99.90
23597;DHT22;40226;50.874;4.394;2024-01-30T14:25:37;11.30;99.90
23597;DHT22;40226;50.874;4.394;2024-01-30T14:28:02;11.30;99.90
23597;DHT22;40226;50.874;4.394;2024-01-30T14:30:28;11.40;99.90
23597;DHT22;40226;50.874;4.394;2024-01-30T14:32:54;11.30;99.90
23597;DHT22;40226;50.874;4.394;2024-01-30T14:35:21;11.20;99.90
23597;DHT22;40226;50.874;4.394;2024-01-30T14:37:47;11.30;99.90
23597;DHT22;40226;50.874;4.394;2024-01-30T14:40:13;11.20;99.90
23597;DHT22;40226;50.874;4.394;2024-01-30T14:42:38;11.10;99.90
23597;DHT22;40226;50.874;4.394;2024-01-30T14:45:06;10.80;99.90
23597;DHT22;40226;50.874;4.394;2024-01-30T14:47:31;10.80;99.90
23597;DHT22;40226;50.874;4.394;2024-01-30T14:49:57;10.80;99.90
23597;DHT22;40226;50.874;4.394;2024-01-30T14:52:23;10.70;99.90
23597;DHT22;40226;50.874;4.394;2024-01-30T14:54:49;10.90;99.90
23597;DHT22;40226;50.874;4.394;2024-01-30T14:57:14;10.70;99.90
23597;DHT22;40226;50.874;4.394;2024-01-30T14:59:40;10.70;99.90
23597;DHT22;40226;50.874;4.394;2024-01-30T15:02:06;10.70;99.90
23597;DHT22;40226;50.874;4.394;2024-01-30T15:04:32;10.80;99.90
23597;DHT22;40226;50.874;4.394;2024-01-30T15:06:58;10.80;99.90
23597;DHT22;40226;50.874;4.394;2024-01-30T15:09:24;10.80;99.90
23597;DHT22;40226;50.874;4.394;2024-01-30T15:11:51;10.90;99.90
23597;DHT22;40226;50.874;4.394;2024-01-30T15:14:17;10.90;99.90
23597;DHT22;40226;50.874;4.394;2024-01-30T15:16:43;10.90;99.90
23597;DHT22;40226;50.874;4.394;2024-01-30T15:19:08;10.80;99.90
23597;DHT22;40226;50.874;4.394;2024-01-30T15:21:34;10.70;99.90
23597;DHT22;40226;50.874;4.394;2024-01-30T15:24:00;10.50;99.90
23597;DHT22;40226;50.874;4.394;2024-01-30T15:26:26;10.40;99.90